Time;durP1;ratioP1;P1;durP2;ratioP2;P2;SDS_P1;SDS_P2;PMS_P1;PMS_P2;Temp;Humidity;BMP_temperature;BMP_pressure;BME280_temperature;BME280_humidity;BME280_pressure;Samples;Min_cycle;Max_cycle;Signal;HPM_P1;HPM_P2
2021/12/13 00:00:16;;;;;;;;;;;;;;;-0.32;71.40;100504.31;4452985;32;33829;-63
2021/12/13 00:02:46;;;;;;;;;;;;;;;-0.30;71.67;100502.81;4462955;32;34891;-63
2021/12/13 00:05:16;;;;;;;;;;;;;;;-0.40;71.64;100505.19;4469571;32;33358;-63
2021/12/13 00:07:44;;;;;;;;;;;;;;;-0.13;70.58;100512.09;4467634;32;35201;-64
2021/12/13 00:10:13;;;;;;;;;;;;;;;0.01;70.24;100500.72;4467078;32;34172;-63
2021/12/13 00:12:42;;;;;;;;;;;;;;;-0.38;70.97;100500.25;4455508;32;35010;-63
2021/12/13 00:15:12;;;;;;;;;;;;;;;-0.06;70.62;100494.13;4470728;32;34064;-64
2021/12/13 00:17:43;;;;;;;;;;;;;;;0.11;69.87;100502.50;4466516;32;34362;-63
2021/12/13 00:20:15;;;;;;;;;;;;;;;-0.43;71.35;100509.97;4468766;32;33647;-63
2021/12/13 00:22:47;;;;;;;;;;;;;;;-0.22;70.83;100517.19;4470004;32;34096;-64
2021/12/13 00:25:23;;;;;;;;;;;;;;;-0.22;70.70;100511.19;4457583;32;33483;-63
2021/12/13 00:28:02;;;;;;;;;;;;;;;0.41;68.86;100507.13;4469900;32;34810;-63
2021/12/13 00:30:32;;;;;;;;;;;;;;;-0.28;70.39;100506.41;4450749;32;34686;-63
2021/12/13 00:33:18;;;;;;;;;;;;;;;-0.01;69.99;100509.84;4452340;32;33646;-64
2021/12/13 00:35:50;;;;;;;;;;;;;;;0.16;69.42;100509.84;4469236;32;35043;-63
2021/12/13 00:38:18;;;;;;;;;;;;;;;0.15;68.85;100510.59;4470941;32;33341;-63
2021/12/13 00:40:46;;;;;;;;;;;;;;;0.48;68.01;100514.59;4468709;32;34255;-64
2021/12/13 00:43:19;;;;;;;;;;;;;;;0.77;66.54;100513.91;4451033;32;34161;-63
2021/12/13 00:45:49;;;;;;;;;;;;;;;0.58;67.58;100513.84;4454777;32;32448;-63
2021/12/13 00:48:17;;;;;;;;;;;;;;;0.44;67.15;100515.06;4463329;32;34327;-63
2021/12/13 00:50:46;;;;;;;;;;;;;;;-0.05;69.37;100520.50;4468454;32;33624;-63
2021/12/13 00:53:18;;;;;;;;;;;;;;;-0.18;70.23;100527.69;4468802;32;34207;-63
2021/12/13 00:55:45;;;;;;;;;;;;;;;-0.20;70.32;100525.88;4470122;32;33944;-63
2021/12/13 00:58:15;;;;;;;;;;;;;;;-0.29;70.97;100535.16;4471106;32;33853;-63
2021/12/13 01:00:47;;;;;;;;;;;;;;;-0.45;70.99;100522.53;4454098;32;33360;-63
2021/12/13 01:03:14;;;;;;;;;;;;;;;-0.48;71.62;100531.53;4468321;32;34278;-63
2021/12/13 01:05:53;;;;;;;;;;;;;;;-0.39;70.92;100522.25;4464011;32;33968;-63
2021/12/13 01:08:30;;;;;;;;;;;;;;;-0.22;70.25;100526.47;4469980;32;34106;-63
2021/12/13 01:11:09;;;;;;;;;;;;;;;0.52;68.09;100529.44;4466406;32;33689;-63
2021/12/13 01:13:55;;;;;;;;;;;;;;;0.44;68.53;100515.06;4461152;32;33972;-63
2021/12/13 01:16:37;;;;;;;;;;;;;;;-0.29;70.16;100519.88;4455146;32;34122;-63
2021/12/13 01:21:58;;;;;;;;;;;;;;;-0.25;70.28;100524.53;4457533;32;33630;-63
2021/12/13 01:25:03;;;;;;;;;;;;;;;-0.25;70.61;100516.91;4470541;32;33473;-63
2021/12/13 01:27:35;;;;;;;;;;;;;;;-0.60;71.37;100521.94;4448369;32;34122;-63
2021/12/13 01:30:04;;;;;;;;;;;;;;;-0.24;69.89;100526.31;4463591;32;35048;-64
2021/12/13 01:32:35;;;;;;;;;;;;;;;0.05;69.26;100532.47;4473447;32;33673;-63
2021/12/13 01:35:03;;;;;;;;;;;;;;;0.32;68.26;100529.16;4462305;32;34062;-63
2021/12/13 01:37:31;;;;;;;;;;;;;;;0.06;68.75;100532.66;4455547;32;34238;-63
2021/12/13 01:40:04;;;;;;;;;;;;;;;-0.11;69.75;100532.63;4460232;32;33617;-63
2021/12/13 01:42:31;;;;;;;;;;;;;;;0.77;66.61;100521.56;4470060;32;32274;-63
2021/12/13 01:45:00;;;;;;;;;;;;;;;0.52;67.26;100525.97;4469899;32;34804;-63
2021/12/13 01:47:29;;;;;;;;;;;;;;;0.27;68.07;100531.28;4464762;32;34791;-63
2021/12/13 01:50:05;;;;;;;;;;;;;;;0.69;66.90;100532.69;4474925;32;35142;-63
2021/12/13 01:52:34;;;;;;;;;;;;;;;0.21;68.49;100527.22;4470432;32;33621;-63
2021/12/13 01:55:05;;;;;;;;;;;;;;;-0.02;68.75;100531.91;4471886;32;33614;-63
2021/12/13 01:58:19;;;;;;;;;;;;;;;0.64;66.72;100526.25;4471478;32;33074;-63
2021/12/13 02:00:43;;;;;;;;;;;;;;;0.26;68.03;100532.03;4463845;32;34338;-63
2021/12/13 02:03:11;;;;;;;;;;;;;;;-0.20;68.95;100528.41;4469488;32;33610;-63
2021/12/13 02:05:38;;;;;;;;;;;;;;;0.46;67.49;100536.47;4471988;32;34661;-63
2021/12/13 02:08:13;;;;;;;;;;;;;;;-0.34;69.68;100535.47;4469701;32;34168;-63
2021/12/13 02:10:42;;;;;;;;;;;;;;;-0.32;69.81;100534.84;4469426;32;34298;-63
2021/12/13 02:13:21;;;;;;;;;;;;;;;-0.08;69.20;100533.84;4468128;32;34488;-63
2021/12/13 02:18:38;;;;;;;;;;;;;;;0.02;68.25;100532.16;4467557;32;33742;-63
2021/12/13 02:21:06;;;;;;;;;;;;;;;0.07;68.78;100552.25;4469506;32;34375;-63
2021/12/13 02:23:37;;;;;;;;;;;;;;;-0.17;69.08;100549.81;4469446;32;34391;-63
2021/12/13 02:26:04;;;;;;;;;;;;;;;-0.02;68.98;100546.25;4459306;32;32844;-63
2021/12/13 02:28:33;;;;;;;;;;;;;;;-0.24;69.63;100554.31;4454914;32;33989;-63
2021/12/13 02:31:09;;;;;;;;;;;;;;;-0.32;69.69;100547.56;4471574;32;34657;-63
2021/12/13 02:33:44;;;;;;;;;;;;;;;0.55;66.74;100539.94;4469329;32;33546;-63
2021/12/13 02:36:15;;;;;;;;;;;;;;;-0.30;69.67;100543.53;4469503;32;34292;-63
2021/12/13 02:38:46;;;;;;;;;;;;;;;-0.33;69.76;100547.41;4470073;32;34676;-63
2021/12/13 02:41:14;;;;;;;;;;;;;;;-0.41;70.23;100544.09;4454864;32;34411;-63
2021/12/13 02:43:44;;;;;;;;;;;;;;;-0.27;69.99;100554.03;4469303;32;34224;-63
2021/12/13 02:46:11;;;;;;;;;;;;;;;-0.11;69.73;100555.56;4468915;32;34272;-64
2021/12/13 02:48:44;;;;;;;;;;;;;;;-0.09;69.32;100559.16;4468614;32;34003;-63
2021/12/13 02:51:20;;;;;;;;;;;;;;;-0.23;70.01;100556.13;4470956;32;34935;-63
2021/12/13 02:53:56;;;;;;;;;;;;;;;-0.65;70.95;100558.72;4462894;32;33476;-64
2021/12/13 02:56:31;;;;;;;;;;;;;;;-0.30;69.53;100553.72;4464945;32;34335;-63
2021/12/13 02:58:59;;;;;;;;;;;;;;;-0.49;70.30;100543.34;4466743;32;34943;-63
2021/12/13 03:01:32;;;;;;;;;;;;;;;-0.38;70.21;100549.53;4458071;32;34088;-63
2021/12/13 03:04:01;;;;;;;;;;;;;;;-0.52;70.76;100557.41;4457895;32;33580;-64
2021/12/13 03:06:31;;;;;;;;;;;;;;;-0.52;70.65;100557.41;4454978;32;34018;-63
2021/12/13 03:09:01;;;;;;;;;;;;;;;-0.64;71.02;100552.91;4467947;32;33547;-63
2021/12/13 03:11:32;;;;;;;;;;;;;;;0.01;68.93;100551.66;4467694;32;34540;-63
2021/12/13 03:14:01;;;;;;;;;;;;;;;-0.51;70.60;100541.41;4468690;32;33138;-64
2021/12/13 03:16:30;;;;;;;;;;;;;;;-0.54;71.02;100536.00;4469270;32;34203;-64
2021/12/13 03:19:04;;;;;;;;;;;;;;;-0.29;70.57;100549.53;4435039;32;33444;-63
2021/12/13 03:21:46;;;;;;;;;;;;;;;-0.42;70.57;100537.25;4453610;32;34187;-63
2021/12/13 03:24:37;;;;;;;;;;;;;;;-0.46;71.04;100541.13;4449860;32;33418;-63
2021/12/13 03:27:05;;;;;;;;;;;;;;;-0.45;71.07;100544.56;4457981;32;34264;-63
2021/12/13 03:29:51;;;;;;;;;;;;;;;-0.08;69.74;100540.56;4465272;32;34184;-63
2021/12/13 03:32:18;;;;;;;;;;;;;;;-0.24;70.19;100539.03;4469180;32;34943;-63
2021/12/13 03:34:56;;;;;;;;;;;;;;;-0.29;70.53;100535.16;4454355;32;33776;-63
2021/12/13 03:37:24;;;;;;;;;;;;;;;0.17;68.71;100542.25;4460145;32;32496;-64
2021/12/13 03:39:55;;;;;;;;;;;;;;;-0.38;70.38;100531.69;4468615;32;34845;-63
2021/12/13 03:42:23;;;;;;;;;;;;;;;-0.41;70.55;100541.56;4468182;32;34282;-63
2021/12/13 03:44:52;;;;;;;;;;;;;;;-0.38;70.57;100549.53;4468227;32;32318;-63
2021/12/13 03:47:21;;;;;;;;;;;;;;;-0.62;71.76;100548.87;4468240;32;34739;-64
2021/12/13 03:49:49;;;;;;;;;;;;;;;-0.49;71.47;100552.63;4446213;32;34934;-64
2021/12/13 03:52:18;;;;;;;;;;;;;;;-0.23;71.00;100556.13;4466555;32;34130;-63
2021/12/13 03:54:47;;;;;;;;;;;;;;;-0.48;72.10;100557.00;4468584;32;34119;-63
2021/12/13 03:57:14;;;;;;;;;;;;;;;-0.56;71.92;100557.84;4455564;32;33868;-63
2021/12/13 03:59:43;;;;;;;;;;;;;;;-0.26;70.70;100571.09;4438082;32;33651;-63
2021/12/13 04:02:13;;;;;;;;;;;;;;;-0.03;70.65;100564.84;4471984;32;35027;-63
2021/12/13 04:04:51;;;;;;;;;;;;;;;-0.16;70.44;100562.72;4467150;32;33642;-63
2021/12/13 04:07:19;;;;;;;;;;;;;;;0.19;69.99;100568.75;4472864;32;34152;-63
2021/12/13 04:09:48;;;;;;;;;;;;;;;0.40;67.98;100563.94;4466349;32;34891;-63
2021/12/13 04:12:16;;;;;;;;;;;;;;;-0.24;70.63;100559.41;4469068;32;34452;-63
2021/12/13 04:14:58;;;;;;;;;;;;;;;-0.65;72.08;100574.00;4452015;32;31839;-63
2021/12/13 04:17:43;;;;;;;;;;;;;;;-0.60;72.27;100571.91;4466594;32;34006;-63
2021/12/13 04:20:15;;;;;;;;;;;;;;;-0.27;71.09;100564.22;4467337;32;34046;-63
2021/12/13 04:22:46;;;;;;;;;;;;;;;0.13;70.34;100575.78;4475416;32;34620;-63
2021/12/13 04:25:18;;;;;;;;;;;;;;;0.37;69.09;100573.84;4462652;32;33552;-63
2021/12/13 04:27:53;;;;;;;;;;;;;;;-0.06;70.50;100574.72;4468255;32;34853;-64
2021/12/13 04:30:26;;;;;;;;;;;;;;;-0.57;72.13;100573.88;4467423;32;33622;-64
2021/12/13 04:32:55;;;;;;;;;;;;;;;-0.70;72.74;100575.16;4469113;32;34990;-64
2021/12/13 04:35:23;;;;;;;;;;;;;;;-0.53;72.35;100573.44;4465040;32;32240;-63
2021/12/13 04:37:52;;;;;;;;;;;;;;;-0.48;72.32;100582.44;4468638;32;34602;-64
2021/12/13 04:40:22;;;;;;;;;;;;;;;-0.70;73.06;100575.16;4469513;32;34811;-63
2021/12/13 04:42:50;;;;;;;;;;;;;;;-0.71;73.73;100575.03;4466637;32;35209;-63
2021/12/13 04:45:19;;;;;;;;;;;;;;;-0.70;73.63;100575.16;4467668;32;34228;-63
2021/12/13 04:47:53;;;;;;;;;;;;;;;-0.75;74.17;100586.53;4467772;32;34150;-63
2021/12/13 04:50:22;;;;;;;;;;;;;;;-0.43;73.95;100576.16;4470934;32;33846;-63
2021/12/13 04:52:50;;;;;;;;;;;;;;;-0.57;73.50;100581.50;4467410;32;34408;-63
2021/12/13 04:55:19;;;;;;;;;;;;;;;-0.48;73.40;100578.25;4466483;32;33492;-63
2021/12/13 04:57:47;;;;;;;;;;;;;;;-0.50;73.82;100578.81;4467290;32;33875;-64
2021/12/13 05:00:18;;;;;;;;;;;;;;;-0.36;73.05;100588.75;4463820;32;34332;-64
2021/12/13 05:02:46;;;;;;;;;;;;;;;-0.35;73.74;100585.44;4467258;32;34110;-64
2021/12/13 05:05:14;;;;;;;;;;;;;;;-0.68;74.39;100594.03;4468835;32;33808;-63
2021/12/13 05:07:43;;;;;;;;;;;;;;;0.02;72.63;100589.13;4469565;32;34350;-63
2021/12/13 05:10:11;;;;;;;;;;;;;;;0.03;72.55;100593.47;4469516;32;33489;-64
2021/12/13 05:12:38;;;;;;;;;;;;;;;-0.40;73.77;100591.75;4456503;32;34277;-64
2021/12/13 05:15:08;;;;;;;;;;;;;;;-0.75;74.96;100604.34;4451348;32;33701;-63
2021/12/13 05:17:45;;;;;;;;;;;;;;;-0.53;74.93;100598.88;4469016;32;34961;-64
2021/12/13 05:20:20;;;;;;;;;;;;;;;-0.60;74.97;100603.34;4471204;32;34176;-63
2021/12/13 05:22:51;;;;;;;;;;;;;;;-0.76;75.66;100599.97;4474369;32;34583;-63
2021/12/13 05:25:26;;;;;;;;;;;;;;;-0.67;75.49;100600.94;4469331;32;34511;-63
2021/12/13 05:27:57;;;;;;;;;;;;;;;-0.13;73.57;100607.97;4473703;32;33902;-63
2021/12/13 05:30:25;;;;;;;;;;;;;;;-0.53;75.51;100609.06;4440430;32;34106;-63
2021/12/13 05:32:55;;;;;;;;;;;;;;;-0.39;75.05;100611.34;4454896;32;34451;-63
2021/12/13 05:35:38;;;;;;;;;;;;;;;-0.52;75.49;100610.84;4466391;32;33645;-64
2021/12/13 05:38:07;;;;;;;;;;;;;;;-0.13;74.10;100619.06;4462841;32;33862;-63
2021/12/13 05:40:42;;;;;;;;;;;;;;;-0.24;74.40;100623.06;4451832;32;32079;-64
2021/12/13 05:43:14;;;;;;;;;;;;;;;-0.36;74.87;100614.22;4469388;32;34165;-63
2021/12/13 05:45:42;;;;;;;;;;;;;;;0.32;72.90;100615.81;4467407;32;33609;-63
2021/12/13 05:48:23;;;;;;;;;;;;;;;0.55;71.81;100625.72;4452466;32;34794;-64
2021/12/13 05:50:52;;;;;;;;;;;;;;;0.11;72.80;100618.03;4468424;32;33933;-63
2021/12/13 05:53:28;;;;;;;;;;;;;;;-0.60;76.04;100621.16;4455847;32;34020;-63
2021/12/13 05:55:58;;;;;;;;;;;;;;;0.13;73.97;100623.28;4465408;32;33113;-63
2021/12/13 05:58:38;;;;;;;;;;;;;;;0.27;72.91;100632.28;4469596;32;33189;-63
2021/12/13 06:01:11;;;;;;;;;;;;;;;0.76;71.26;100632.00;4463785;32;34823;-63
2021/12/13 06:03:53;;;;;;;;;;;;;;;1.04;69.89;100632.97;4470062;32;35470;-63
2021/12/13 06:06:23;;;;;;;;;;;;;;;1.31;69.38;100633.81;4465891;32;33428;-63
2021/12/13 06:08:53;;;;;;;;;;;;;;;1.27;68.52;100634.28;4461764;32;32452;-63
2021/12/13 06:11:22;;;;;;;;;;;;;;;1.16;69.49;100641.81;4468243;32;34698;-63
2021/12/13 06:13:54;;;;;;;;;;;;;;;2.05;66.29;100628.78;4470598;32;34518;-63
2021/12/13 06:16:25;;;;;;;;;;;;;;;1.67;67.48;100635.47;4467884;32;33360;-63
2021/12/13 06:18:52;;;;;;;;;;;;;;;2.07;65.87;100632.38;4463874;32;34112;-63
2021/12/13 06:21:19;;;;;;;;;;;;;;;0.52;70.92;100641.63;4471317;32;35062;-63
2021/12/13 06:23:47;;;;;;;;;;;;;;;0.30;72.96;100642.78;4471553;32;34566;-63
2021/12/13 06:26:14;;;;;;;;;;;;;;;-0.28;75.22;100654.06;4465780;32;33397;-63
2021/12/13 06:28:43;;;;;;;;;;;;;;;0.09;74.36;100655.19;4475607;32;33971;-63
2021/12/13 06:31:16;;;;;;;;;;;;;;;0.22;73.16;100649.69;4468708;32;34993;-64
2021/12/13 06:33:57;;;;;;;;;;;;;;;0.35;73.49;100646.72;4470732;32;34444;-63
2021/12/13 06:36:26;;;;;;;;;;;;;;;0.96;70.76;100655.19;4452161;32;31824;-63
2021/12/13 06:38:55;;;;;;;;;;;;;;;0.73;70.98;100655.53;4470512;32;33685;-63
2021/12/13 06:41:32;;;;;;;;;;;;;;;1.20;69.86;100663.44;4469357;32;34151;-63
2021/12/13 06:44:03;;;;;;;;;;;;;;;1.52;68.02;100668.13;4466108;32;35177;-63
2021/12/13 06:46:36;;;;;;;;;;;;;;;0.98;70.27;100663.94;4470542;32;33789;-63
2021/12/13 06:49:12;;;;;;;;;;;;;;;0.29;71.71;100664.84;4469509;32;34271;-63
2021/12/13 06:51:39;;;;;;;;;;;;;;;1.17;68.72;100663.13;4470197;32;34267;-63
2021/12/13 06:54:10;;;;;;;;;;;;;;;0.23;73.12;100665.88;4469746;32;34187;-63
2021/12/13 06:56:38;;;;;;;;;;;;;;;1.21;69.59;100672.88;4454771;32;32616;-63
2021/12/13 06:59:06;;;;;;;;;;;;;;;0.09;73.26;100673.03;4470121;32;33918;-63
2021/12/13 07:01:34;;;;;;;;;;;;;;;-0.24;74.62;100675.62;4470852;32;34346;-63
2021/12/13 07:04:03;;;;;;;;;;;;;;;0.58;72.46;100670.25;4479791;32;34411;-66
2021/12/13 07:06:30;;;;;;;;;;;;;;;0.98;70.32;100675.75;4470362;32;33112;-64
2021/12/13 07:09:06;;;;;;;;;;;;;;;1.40;68.05;100672.09;4469985;32;34816;-63
2021/12/13 07:11:47;;;;;;;;;;;;;;;1.15;68.14;100670.63;4470347;32;34976;-63
2021/12/13 07:14:15;;;;;;;;;;;;;;;0.91;70.49;100669.19;4456116;32;34442;-64
2021/12/13 07:16:49;;;;;;;;;;;;;;;0.46;71.73;100671.56;4470206;32;33608;-63
2021/12/13 07:19:22;;;;;;;;;;;;;;;0.41;71.80;100672.78;4470524;32;34685;-64
2021/12/13 07:21:55;;;;;;;;;;;;;;;0.95;69.46;100680.59;4482587;32;34224;-64
2021/12/13 07:24:33;;;;;;;;;;;;;;;0.80;70.63;100685.09;4464826;32;34495;-64
2021/12/13 07:27:05;;;;;;;;;;;;;;;1.44;66.96;100680.16;4467974;32;34345;-63
2021/12/13 07:29:46;;;;;;;;;;;;;;;1.28;68.39;100680.38;4471544;32;33913;-62
2021/12/13 07:32:20;;;;;;;;;;;;;;;1.15;69.42;100677.37;4456523;32;34858;-66
2021/12/13 07:34:58;;;;;;;;;;;;;;;0.58;71.67;100677.00;4479538;32;33243;-63
2021/12/13 07:37:42;;;;;;;;;;;;;;;0.25;73.79;100687.31;4473624;32;33363;-64
2021/12/13 07:40:32;;;;;;;;;;;;;;;0.31;74.73;100680.25;4465439;32;34965;-62
2021/12/13 07:42:59;;;;;;;;;;;;;;;1.33;71.26;100681.72;4440098;32;33419;-65
2021/12/13 07:45:30;;;;;;;;;;;;;;;1.51;70.51;100687.66;4473936;32;35065;-64
2021/12/13 07:47:57;;;;;;;;;;;;;;;1.94;69.24;100683.12;4471068;32;32540;-65
2021/12/13 07:50:25;;;;;;;;;;;;;;;1.28;72.08;100684.59;4475295;32;33999;-64
2021/12/13 07:52:57;;;;;;;;;;;;;;;2.05;67.78;100690.12;4466484;32;33860;-63
2021/12/13 07:55:28;;;;;;;;;;;;;;;1.99;67.77;100699.78;4462767;32;35051;-62
2021/12/13 07:57:57;;;;;;;;;;;;;;;2.12;67.72;100692.47;4448130;32;33295;-61
2021/12/13 08:00:26;;;;;;;;;;;;;;;1.51;69.70;100697.87;4478931;32;34952;-62
2021/12/13 08:03:19;;;;;;;;;;;;;;;1.74;69.18;100701.72;4468781;32;35014;-64
2021/12/13 08:05:48;;;;;;;;;;;;;;;1.96;68.12;100695.25;4452412;32;32299;-64
2021/12/13 08:08:18;;;;;;;;;;;;;;;1.66;69.60;100708.66;4471811;32;34305;-62
2021/12/13 08:10:45;;;;;;;;;;;;;;;1.67;69.78;100709.53;4461836;32;34192;-62
2021/12/13 08:13:16;;;;;;;;;;;;;;;2.49;67.56;100698.44;4461215;32;35240;-64
2021/12/13 08:15:54;;;;;;;;;;;;;;;1.28;72.75;100703.34;4462619;32;34330;-64
2021/12/13 08:18:24;;;;;;;;;;;;;;;2.52;68.51;100708.91;4469431;32;33725;-63
2021/12/13 08:20:54;;;;;;;;;;;;;;;2.79;66.84;100707.06;4466596;32;34010;-62
2021/12/13 08:23:24;;;;;;;;;;;;;;;2.81;67.14;100714.87;4456246;32;32268;-61
2021/12/13 08:25:52;;;;;;;;;;;;;;;2.84;66.99;100710.94;4472920;32;34937;-63
2021/12/13 08:28:21;;;;;;;;;;;;;;;2.29;70.00;100716.16;4473009;32;34069;-65
2021/12/13 08:30:52;;;;;;;;;;;;;;;1.89;71.00;100723.59;4452712;32;34801;-64
2021/12/13 08:33:22;;;;;;;;;;;;;;;1.65;72.07;100727.25;4454236;32;34158;-64
2021/12/13 08:35:58;;;;;;;;;;;;;;;2.24;69.99;100723.41;4469677;32;34092;-64
2021/12/13 08:38:44;;;;;;;;;;;;;;;2.10;70.26;100718.66;4467967;32;34055;-66
2021/12/13 08:41:15;;;;;;;;;;;;;;;2.22;70.35;100719.81;4470617;32;33842;-65
2021/12/13 08:44:11;;;;;;;;;;;;;;;2.17;70.07;100727.03;4468758;32;33315;-65
2021/12/13 08:46:43;;;;;;;;;;;;;;;2.86;67.55;100719.66;4447621;32;34869;-64
2021/12/13 08:49:29;;;;;;;;;;;;;;;2.13;70.07;100721.50;4472694;32;32623;-65
2021/12/13 08:52:18;;;;;;;;;;;;;;;2.39;69.11;100721.34;4473362;32;34102;-63
2021/12/13 08:54:51;;;;;;;;;;;;;;;2.90;67.21;100726.84;4471161;32;34177;-63
2021/12/13 08:57:37;;;;;;;;;;;;;;;3.21;65.95;100729.56;4468824;32;34414;-61
2021/12/13 09:00:14;;;;;;;;;;;;;;;2.15;69.98;100732.78;4458841;32;32865;-63
2021/12/13 09:02:43;;;;;;;;;;;;;;;3.02;66.99;100726.16;4482866;32;33861;-63
2021/12/13 09:05:12;;;;;;;;;;;;;;;3.22;66.00;100723.69;4481302;32;34026;-64
2021/12/13 09:07:46;;;;;;;;;;;;;;;2.85;66.89;100728.06;4470292;32;34393;-63
2021/12/13 09:10:14;;;;;;;;;;;;;;;2.86;66.56;100724.78;4457813;32;33417;-63
2021/12/13 09:12:45;;;;;;;;;;;;;;;2.69;67.79;100720.69;4471288;32;34845;-65
2021/12/13 09:15:18;;;;;;;;;;;;;;;2.81;66.95;100723.44;4471130;32;33459;-66
2021/12/13 09:17:46;;;;;;;;;;;;;;;2.84;66.78;100726.28;4457199;32;35273;-64
2021/12/13 09:20:16;;;;;;;;;;;;;;;2.65;68.55;100727.94;4470825;32;33093;-62
2021/12/13 09:22:50;;;;;;;;;;;;;;;3.11;66.70;100727.88;4480009;32;34093;-62
2021/12/13 09:25:32;;;;;;;;;;;;;;;3.10;66.36;100727.72;4477192;32;32787;-62
2021/12/13 09:28:01;;;;;;;;;;;;;;;2.78;67.04;100725.72;4479773;32;34186;-62
2021/12/13 09:30:28;;;;;;;;;;;;;;;3.86;64.42;100723.31;4475815;32;32603;-62
2021/12/13 09:33:01;;;;;;;;;;;;;;;3.46;64.49;100721.50;4470305;32;34091;-63
2021/12/13 09:35:31;;;;;;;;;;;;;;;3.02;66.22;100726.16;4458583;32;33728;-62
2021/12/13 09:38:02;;;;;;;;;;;;;;;3.13;66.57;100717.78;4470054;32;33829;-63
2021/12/13 09:40:38;;;;;;;;;;;;;;;3.91;63.55;100718.56;4478427;32;33697;-62
2021/12/13 09:43:05;;;;;;;;;;;;;;;3.58;64.35;100716.56;4448641;32;33574;-63
2021/12/13 09:45:43;;;;;;;;;;;;;;;3.37;65.87;100710.44;4478407;32;33956;-63
2021/12/13 09:48:18;;;;;;;;;;;;;;;3.02;67.01;100710.78;4467331;32;34506;-62
2021/12/13 09:50:48;;;;;;;;;;;;;;;3.69;65.25;100716.72;4459351;32;32023;-62
2021/12/13 09:53:15;;;;;;;;;;;;;;;3.67;64.89;100713.12;4471434;32;34078;-63
2021/12/13 09:55:45;;;;;;;;;;;;;;;3.44;65.65;100712.75;4469868;32;35045;-63
2021/12/13 09:58:21;;;;;;;;;;;;;;;3.57;64.79;100705.37;4470589;32;34164;-62
2021/12/13 10:00:51;;;;;;;;;;;;;;;3.87;64.01;100702.00;4458163;32;34230;-63
2021/12/13 10:03:28;;;;;;;;;;;;;;;4.30;62.78;100697.06;4470518;32;34005;-63
2021/12/13 10:05:57;;;;;;;;;;;;;;;3.91;63.96;100692.94;4470910;32;33844;-63
2021/12/13 10:08:26;;;;;;;;;;;;;;;3.64;64.70;100702.59;4470697;32;34089;-63
2021/12/13 10:10:55;;;;;;;;;;;;;;;3.61;65.65;100701.44;4470717;32;34365;-63
2021/12/13 10:13:24;;;;;;;;;;;;;;;4.08;64.02;100700.38;4471097;32;34125;-63
2021/12/13 10:15:53;;;;;;;;;;;;;;;4.34;63.15;100699.09;4470279;32;34044;-63
2021/12/13 10:18:22;;;;;;;;;;;;;;;3.89;64.57;100694.47;4447526;32;34466;-63
2021/12/13 10:21:09;;;;;;;;;;;;;;;3.98;64.45;100695.25;4464200;32;33471;-63
2021/12/13 10:23:39;;;;;;;;;;;;;;;4.25;63.67;100685.50;4469104;32;35062;-63
2021/12/13 10:26:25;;;;;;;;;;;;;;;3.53;65.96;100694.00;4470736;32;34172;-63
2021/12/13 10:28:53;;;;;;;;;;;;;;;3.84;64.93;100693.16;4453172;32;33929;-62
2021/12/13 10:31:26;;;;;;;;;;;;;;;3.70;66.42;100691.97;4467762;32;33772;-63
2021/12/13 10:33:54;;;;;;;;;;;;;;;4.26;63.51;100682.19;4470166;32;34696;-63
2021/12/13 10:36:21;;;;;;;;;;;;;;;4.34;62.66;100681.16;4464643;32;33881;-63
2021/12/13 10:38:53;;;;;;;;;;;;;;;4.54;62.46;100690.53;4466890;32;34931;-62
2021/12/13 10:41:25;;;;;;;;;;;;;;;4.59;62.57;100693.47;4469784;32;34231;-63
2021/12/13 10:43:55;;;;;;;;;;;;;;;4.39;63.67;100689.25;4445806;32;33592;-62
2021/12/13 10:46:30;;;;;;;;;;;;;;;4.37;62.47;100685.66;4466474;32;34310;-63
2021/12/13 10:48:59;;;;;;;;;;;;;;;3.97;64.84;100678.06;4460160;32;34536;-63
2021/12/13 10:51:28;;;;;;;;;;;;;;;3.70;65.01;100671.47;4454644;32;31760;-64
2021/12/13 10:53:56;;;;;;;;;;;;;;;4.01;63.69;100674.09;4468469;32;35302;-63
2021/12/13 10:56:26;;;;;;;;;;;;;;;4.34;62.61;100670.87;4470025;32;34158;-63
2021/12/13 10:58:54;;;;;;;;;;;;;;;3.89;63.71;100673.97;4455273;32;34113;-62
2021/12/13 11:01:23;;;;;;;;;;;;;;;4.06;63.28;100663.47;4466123;32;33831;-64
2021/12/13 11:03:51;;;;;;;;;;;;;;;4.30;62.41;100667.16;4468717;32;34192;-63
2021/12/13 11:06:19;;;;;;;;;;;;;;;4.42;60.58;100674.09;4468911;32;34031;-64
2021/12/13 11:08:46;;;;;;;;;;;;;;;3.63;63.16;100670.06;4466288;32;142200;-64
2021/12/13 11:11:31;;;;;;;;;;;;;;;3.73;62.90;100664.97;4448978;32;31580;-63
2021/12/13 11:14:05;;;;;;;;;;;;;;;4.29;61.63;100661.94;4450844;32;33929;-63
2021/12/13 11:16:39;;;;;;;;;;;;;;;4.02;62.91;100668.19;4468020;32;34143;-63
2021/12/13 11:19:12;;;;;;;;;;;;;;;4.37;61.39;100671.16;4469717;32;34099;-64
2021/12/13 11:21:40;;;;;;;;;;;;;;;4.30;62.43;100673.97;4455479;32;34055;-63
2021/12/13 11:24:09;;;;;;;;;;;;;;;4.07;62.45;100675.50;4469661;32;34173;-64
2021/12/13 11:26:37;;;;;;;;;;;;;;;4.59;61.76;100667.81;4454519;32;33375;-62
2021/12/13 11:29:05;;;;;;;;;;;;;;;4.49;62.16;100672.16;4469891;32;34468;-64
2021/12/13 11:31:33;;;;;;;;;;;;;;;4.06;63.69;100663.47;4467607;32;33746;-63
2021/12/13 11:34:01;;;;;;;;;;;;;;;4.10;64.05;100673.22;4443645;32;34194;-63
2021/12/13 11:36:41;;;;;;;;;;;;;;;4.47;63.51;100673.72;4466045;32;34227;-63
2021/12/13 11:39:27;;;;;;;;;;;;;;;4.07;64.56;100678.06;4467459;32;35194;-62
2021/12/13 11:41:57;;;;;;;;;;;;;;;4.35;63.87;100659.88;4468650;32;34013;-63
2021/12/13 11:44:43;;;;;;;;;;;;;;;4.21;64.08;100662.94;4454278;32;34097;-63
2021/12/13 11:47:28;;;;;;;;;;;;;;;3.88;65.22;100669.59;4469698;32;34820;-63
2021/12/13 11:49:59;;;;;;;;;;;;;;;4.45;64.00;100665.00;4468821;32;34908;-63
2021/12/13 11:52:26;;;;;;;;;;;;;;;4.74;62.79;100663.94;4468776;32;32698;-63
2021/12/13 11:55:12;;;;;;;;;;;;;;;4.41;64.03;100662.94;4469484;32;34858;-62
2021/12/13 11:57:49;;;;;;;;;;;;;;;4.55;63.47;100658.06;4468268;32;34993;-63
2021/12/13 12:00:35;;;;;;;;;;;;;;;5.00;61.97;100652.28;4467990;32;34932;-62
2021/12/13 12:03:29;;;;;;;;;;;;;;;4.50;63.58;100658.59;4457022;32;33790;-62
2021/12/13 12:06:04;;;;;;;;;;;;;;;4.38;63.52;100662.69;4436108;32;34970;-63
2021/12/13 12:08:50;;;;;;;;;;;;;;;4.05;64.54;100656.53;4468521;32;33833;-63
2021/12/13 12:11:27;;;;;;;;;;;;;;;4.26;64.34;100656.53;4460754;32;35170;-62
2021/12/13 12:14:05;;;;;;;;;;;;;;;4.37;63.57;100655.78;4469999;32;34023;-62
2021/12/13 12:16:37;;;;;;;;;;;;;;;4.22;64.46;100654.50;4470898;32;34865;-63
2021/12/13 12:19:05;;;;;;;;;;;;;;;4.44;63.60;100663.22;4469093;32;34749;-63
2021/12/13 12:21:35;;;;;;;;;;;;;;;4.98;62.01;100653.84;4470497;32;34256;-63
2021/12/13 12:24:04;;;;;;;;;;;;;;;5.49;60.33;100664.81;4470493;32;33478;-62
2021/12/13 12:26:32;;;;;;;;;;;;;;;4.42;63.38;100662.16;4461396;32;34119;-63
2021/12/13 12:29:02;;;;;;;;;;;;;;;4.45;62.52;100659.88;4471347;32;34165;-62
2021/12/13 12:31:31;;;;;;;;;;;;;;;4.84;61.32;100663.00;4470741;32;35191;-63
2021/12/13 12:33:59;;;;;;;;;;;;;;;5.01;60.12;100664.37;4471834;32;33564;-63
2021/12/13 12:36:43;;;;;;;;;;;;;;;4.53;62.24;100668.19;4456598;32;34136;-63
2021/12/13 12:39:29;;;;;;;;;;;;;;;5.01;61.04;100669.50;4470603;32;34300;-64
2021/12/13 12:42:02;;;;;;;;;;;;;;;5.59;59.19;100658.72;4468404;32;35149;-63
2021/12/13 12:44:59;;;;;;;;;;;;;;;4.84;61.72;100660.44;4469585;32;33462;-63
2021/12/13 12:47:46;;;;;;;;;;;;;;;4.72;62.55;100660.34;4470370;32;34272;-64
2021/12/13 12:50:16;;;;;;;;;;;;;;;4.96;62.20;100666.56;4443829;32;34212;-63
2021/12/13 12:52:47;;;;;;;;;;;;;;;4.66;62.12;100660.72;4470180;32;34394;-64
2021/12/13 12:55:16;;;;;;;;;;;;;;;4.92;61.87;100660.31;4471191;32;33817;-64
2021/12/13 12:57:43;;;;;;;;;;;;;;;5.45;60.52;100649.03;4464285;32;34624;-63
2021/12/13 13:00:11;;;;;;;;;;;;;;;5.08;61.10;100657.28;4471297;32;34232;-63
2021/12/13 13:02:50;;;;;;;;;;;;;;;4.97;61.88;100657.19;4458400;32;35287;-63
2021/12/13 13:05:19;;;;;;;;;;;;;;;5.24;61.18;100664.53;4471054;32;33262;-63
2021/12/13 13:07:49;;;;;;;;;;;;;;;5.51;60.05;100657.22;4470079;32;35052;-62
2021/12/13 13:12:59;;;;;;;;;;;;;;;5.53;60.38;100665.06;4463770;32;34960;-63
2021/12/13 13:15:28;;;;;;;;;;;;;;;5.11;61.61;100672.03;4471096;32;33711;-63
2021/12/13 13:18:00;;;;;;;;;;;;;;;4.81;62.57;100670.44;4470443;32;34152;-63